sensor_id;sensor_type;location;lat;lon;timestamp;temperature;humidity
10133;DHT22;5106;50.926;7.080;2022-09-06T00:00:14;19.30;74.20
10133;DHT22;5106;50.926;7.080;2022-09-06T00:02:41;19.40;74.20
10133;DHT22;5106;50.926;7.080;2022-09-06T00:05:08;19.40;74.30
10133;DHT22;5106;50.926;7.080;2022-09-06T00:07:35;19.40;74.40
10133;DHT22;5106;50.926;7.080;2022-09-06T00:10:02;19.40;74.40
10133;DHT22;5106;50.926;7.080;2022-09-06T00:12:27;19.40;74.20
10133;DHT22;5106;50.926;7.080;2022-09-06T00:14:53;19.40;74.00
10133;DHT22;5106;50.926;7.080;2022-09-06T00:17:19;19.50;73.70
10133;DHT22;5106;50.926;7.080;2022-09-06T00:19:45;19.50;73.40
10133;DHT22;5106;50.926;7.080;2022-09-06T00:22:10;19.50;73.10
10133;DHT22;5106;50.926;7.080;2022-09-06T00:24:36;19.40;72.70
10133;DHT22;5106;50.926;7.080;2022-09-06T00:27:05;19.40;71.90
10133;DHT22;5106;50.926;7.080;2022-09-06T00:29:31;19.50;71.40
10133;DHT22;5106;50.926;7.080;2022-09-06T00:31:58;19.60;71.70
10133;DHT22;5106;50.926;7.080;2022-09-06T00:34:24;19.60;71.80
10133;DHT22;5106;50.926;7.080;2022-09-06T00:36:50;19.80;68.70
10133;DHT22;5106;50.926;7.080;2022-09-06T00:39:15;19.90;68.80
10133;DHT22;5106;50.926;7.080;2022-09-06T00:41:41;20.10;67.50
10133;DHT22;5106;50.926;7.080;2022-09-06T00:44:07;20.40;66.30
10133;DHT22;5106;50.926;7.080;2022-09-06T00:46:33;20.50;69.30
10133;DHT22;5106;50.926;7.080;2022-09-06T00:49:18;20.40;73.60
10133;DHT22;5106;50.926;7.080;2022-09-06T00:51:52;20.10;74.90
10133;DHT22;5106;50.926;7.080;2022-09-06T00:54:20;19.70;76.60
10133;DHT22;5106;50.926;7.080;2022-09-06T00:56:46;19.50;78.80
10133;DHT22;5106;50.926;7.080;2022-09-06T00:59:12;19.40;79.90
10133;DHT22;5106;50.926;7.080;2022-09-06T01:01:38;19.20;80.70
10133;DHT22;5106;50.926;7.080;2022-09-06T01:04:04;19.20;81.50
10133;DHT22;5106;50.926;7.080;2022-09-06T01:07:02;19.20;81.80
10133;DHT22;5106;50.926;7.080;2022-09-06T01:12:16;19.20;81.90
10133;DHT22;5106;50.926;7.080;2022-09-06T01:15:19;19.20;82.00
10133;DHT22;5106;50.926;7.080;2022-09-06T01:28:32;19.10;82.20
10133;DHT22;5106;50.926;7.080;2022-09-06T01:31:05;19.20;82.10
10133;DHT22;5106;50.926;7.080;2022-09-06T01:36:33;19.20;81.80
10133;DHT22;5106;50.926;7.080;2022-09-06T01:39:01;19.20;81.80
10133;DHT22;5106;50.926;7.080;2022-09-06T01:41:27;19.30;81.90
10133;DHT22;5106;50.926;7.080;2022-09-06T01:43:53;19.30;81.70
10133;DHT22;5106;50.926;7.080;2022-09-06T01:49:39;19.30;81.80
10133;DHT22;5106;50.926;7.080;2022-09-06T01:52:21;19.30;81.80
10133;DHT22;5106;50.926;7.080;2022-09-06T01:57:59;19.40;81.80
10133;DHT22;5106;50.926;7.080;2022-09-06T02:00:28;19.40;81.90
10133;DHT22;5106;50.926;7.080;2022-09-06T02:05:40;19.40;82.00
10133;DHT22;5106;50.926;7.080;2022-09-06T02:08:10;19.30;82.20
10133;DHT22;5106;50.926;7.080;2022-09-06T02:10:41;19.30;82.40
10133;DHT22;5106;50.926;7.080;2022-09-06T02:13:09;19.30;82.30
10133;DHT22;5106;50.926;7.080;2022-09-06T02:15:38;19.30;82.30
10133;DHT22;5106;50.926;7.080;2022-09-06T02:18:12;19.30;82.30
10133;DHT22;5106;50.926;7.080;2022-09-06T02:20:46;19.30;82.40
10133;DHT22;5106;50.926;7.080;2022-09-06T02:23:14;19.30;82.40
10133;DHT22;5106;50.926;7.080;2022-09-06T02:25:46;19.30;82.40
10133;DHT22;5106;50.926;7.080;2022-09-06T02:28:15;19.30;82.40
10133;DHT22;5106;50.926;7.080;2022-09-06T02:30:45;19.30;82.40
10133;DHT22;5106;50.926;7.080;2022-09-06T02:33:15;19.20;82.50
10133;DHT22;5106;50.926;7.080;2022-09-06T02:35:51;19.20;82.30
10133;DHT22;5106;50.926;7.080;2022-09-06T02:38:18;19.30;82.20
10133;DHT22;5106;50.926;7.080;2022-09-06T02:40:45;19.20;82.40
10133;DHT22;5106;50.926;7.080;2022-09-06T02:43:11;19.20;82.50
10133;DHT22;5106;50.926;7.080;2022-09-06T02:45:38;19.20;82.40
10133;DHT22;5106;50.926;7.080;2022-09-06T02:48:04;19.20;82.30
10133;DHT22;5106;50.926;7.080;2022-09-06T02:50:29;19.20;82.40
10133;DHT22;5106;50.926;7.080;2022-09-06T02:53:12;19.20;82.20
10133;DHT22;5106;50.926;7.080;2022-09-06T02:55:38;19.20;82.20
10133;DHT22;5106;50.926;7.080;2022-09-06T02:58:06;19.20;82.10
10133;DHT22;5106;50.926;7.080;2022-09-06T03:00:32;19.20;82.10
10133;DHT22;5106;50.926;7.080;2022-09-06T03:02:58;19.20;82.20
10133;DHT22;5106;50.926;7.080;2022-09-06T03:05:25;19.20;82.20
10133;DHT22;5106;50.926;7.080;2022-09-06T03:07:52;19.10;82.20
10133;DHT22;5106;50.926;7.080;2022-09-06T03:10:19;19.10;82.30
10133;DHT22;5106;50.926;7.080;2022-09-06T03:12:46;19.10;82.20
10133;DHT22;5106;50.926;7.080;2022-09-06T03:15:14;19.10;82.10
10133;DHT22;5106;50.926;7.080;2022-09-06T03:17:40;19.20;82.10
10133;DHT22;5106;50.926;7.080;2022-09-06T03:20:07;19.20;82.00
10133;DHT22;5106;50.926;7.080;2022-09-06T03:22:37;19.20;82.00
10133;DHT22;5106;50.926;7.080;2022-09-06T03:25:07;19.20;82.00
10133;DHT22;5106;50.926;7.080;2022-09-06T03:27:33;19.20;81.90
10133;DHT22;5106;50.926;7.080;2022-09-06T03:29:59;19.20;81.80
10133;DHT22;5106;50.926;7.080;2022-09-06T03:32:24;19.20;81.70
10133;DHT22;5106;50.926;7.080;2022-09-06T03:34:50;19.20;81.60
10133;DHT22;5106;50.926;7.080;2022-09-06T03:37:16;19.20;81.60
10133;DHT22;5106;50.926;7.080;2022-09-06T03:39:42;19.20;81.60
10133;DHT22;5106;50.926;7.080;2022-09-06T03:42:07;19.20;81.50
10133;DHT22;5106;50.926;7.080;2022-09-06T03:44:33;19.20;81.40
10133;DHT22;5106;50.926;7.080;2022-09-06T03:46:58;19.10;81.60
10133;DHT22;5106;50.926;7.080;2022-09-06T03:49:24;19.00;81.90
10133;DHT22;5106;50.926;7.080;2022-09-06T03:51:50;19.00;82.10
10133;DHT22;5106;50.926;7.080;2022-09-06T03:54:15;19.00;82.10
10133;DHT22;5106;50.926;7.080;2022-09-06T03:56:41;18.90;81.80
10133;DHT22;5106;50.926;7.080;2022-09-06T03:59:07;18.80;82.10
10133;DHT22;5106;50.926;7.080;2022-09-06T04:01:32;18.70;82.40
10133;DHT22;5106;50.926;7.080;2022-09-06T04:03:58;18.70;82.50
10133;DHT22;5106;50.926;7.080;2022-09-06T04:06:25;18.70;82.30
10133;DHT22;5106;50.926;7.080;2022-09-06T04:08:51;18.60;82.20
10133;DHT22;5106;50.926;7.080;2022-09-06T04:11:17;18.60;82.20
10133;DHT22;5106;50.926;7.080;2022-09-06T04:13:42;18.50;82.30
10133;DHT22;5106;50.926;7.080;2022-09-06T04:16:08;18.50;82.40
10133;DHT22;5106;50.926;7.080;2022-09-06T04:18:34;18.50;82.40
10133;DHT22;5106;50.926;7.080;2022-09-06T04:20:59;18.40;82.40
10133;DHT22;5106;50.926;7.080;2022-09-06T04:23:27;18.40;82.40
10133;DHT22;5106;50.926;7.080;2022-09-06T04:25:54;18.30;82.60
10133;DHT22;5106;50.926;7.080;2022-09-06T04:28:20;18.30;82.50
10133;DHT22;5106;50.926;7.080;2022-09-06T04:30:58;18.20;82.50
10133;DHT22;5106;50.926;7.080;2022-09-06T04:33:24;18.10;82.80
10133;DHT22;5106;50.926;7.080;2022-09-06T04:35:55;18.10;82.90
10133;DHT22;5106;50.926;7.080;2022-09-06T04:38:24;18.10;82.80
10133;DHT22;5106;50.926;7.080;2022-09-06T04:40:50;18.00;82.90
10133;DHT22;5106;50.926;7.080;2022-09-06T04:43:16;18.00;83.00
10133;DHT22;5106;50.926;7.080;2022-09-06T04:45:43;18.00;82.90
10133;DHT22;5106;50.926;7.080;2022-09-06T04:48:09;18.00;82.80
10133;DHT22;5106;50.926;7.080;2022-09-06T04:50:35;17.90;82.70
10133;DHT22;5106;50.926;7.080;2022-09-06T04:53:01;17.90;82.70
10133;DHT22;5106;50.926;7.080;2022-09-06T04:55:27;17.90;82.70
10133;DHT22;5106;50.926;7.080;2022-09-06T04:57:56;17.80;82.80
10133;DHT22;5106;50.926;7.080;2022-09-06T05:00:28;17.70;83.00
10133;DHT22;5106;50.926;7.080;2022-09-06T05:02:54;17.70;83.10
10133;DHT22;5106;50.926;7.080;2022-09-06T05:05:20;17.70;83.10
10133;DHT22;5106;50.926;7.080;2022-09-06T05:07:47;17.60;83.30
10133;DHT22;5106;50.926;7.080;2022-09-06T05:10:12;17.60;83.50
10133;DHT22;5106;50.926;7.080;2022-09-06T05:12:38;17.60;83.70
10133;DHT22;5106;50.926;7.080;2022-09-06T05:15:04;17.60;83.70
10133;DHT22;5106;50.926;7.080;2022-09-06T05:17:30;17.60;83.60
10133;DHT22;5106;50.926;7.080;2022-09-06T05:19:55;17.50;83.60
10133;DHT22;5106;50.926;7.080;2022-09-06T05:22:21;17.50;83.70
10133;DHT22;5106;50.926;7.080;2022-09-06T05:24:47;17.50;83.80
10133;DHT22;5106;50.926;7.080;2022-09-06T05:27:12;17.50;83.80
10133;DHT22;5106;50.926;7.080;2022-09-06T05:29:38;17.50;83.90
10133;DHT22;5106;50.926;7.080;2022-09-06T05:32:04;17.50;83.60
10133;DHT22;5106;50.926;7.080;2022-09-06T05:34:30;17.50;83.70
10133;DHT22;5106;50.926;7.080;2022-09-06T05:36:55;17.50;83.80
10133;DHT22;5106;50.926;7.080;2022-09-06T05:39:21;17.50;83.80
10133;DHT22;5106;50.926;7.080;2022-09-06T05:41:47;17.50;83.70
10133;DHT22;5106;50.926;7.080;2022-09-06T05:44:12;17.50;83.90
10133;DHT22;5106;50.926;7.080;2022-09-06T05:46:45;17.50;84.00
10133;DHT22;5106;50.926;7.080;2022-09-06T05:49:12;17.50;84.00
10133;DHT22;5106;50.926;7.080;2022-09-06T05:51:39;17.50;83.80
10133;DHT22;5106;50.926;7.080;2022-09-06T05:54:05;17.50;83.80
10133;DHT22;5106;50.926;7.080;2022-09-06T05:56:32;17.50;83.80
10133;DHT22;5106;50.926;7.080;2022-09-06T05:58:57;17.50;83.90
10133;DHT22;5106;50.926;7.080;2022-09-06T06:01:25;17.50;84.00
10133;DHT22;5106;50.926;7.080;2022-09-06T06:03:59;17.60;84.00
10133;DHT22;5106;50.926;7.080;2022-09-06T06:06:27;17.60;84.00
10133;DHT22;5106;50.926;7.080;2022-09-06T06:08:53;17.60;84.10
10133;DHT22;5106;50.926;7.080;2022-09-06T06:11:19;17.60;84.00
10133;DHT22;5106;50.926;7.080;2022-09-06T06:13:45;17.70;84.10
10133;DHT22;5106;50.926;7.080;2022-09-06T06:16:12;17.70;84.00
10133;DHT22;5106;50.926;7.080;2022-09-06T06:18:38;17.80;83.90
10133;DHT22;5106;50.926;7.080;2022-09-06T06:23:41;17.90;83.90
10133;DHT22;5106;50.926;7.080;2022-09-06T06:26:08;17.90;83.80
10133;DHT22;5106;50.926;7.080;2022-09-06T06:28:35;18.00;83.80
10133;DHT22;5106;50.926;7.080;2022-09-06T06:31:02;18.00;83.70
10133;DHT22;5106;50.926;7.080;2022-09-06T06:33:28;18.10;83.60
10133;DHT22;5106;50.926;7.080;2022-09-06T06:36:02;18.10;83.50
10133;DHT22;5106;50.926;7.080;2022-09-06T06:38:30;18.20;83.30
10133;DHT22;5106;50.926;7.080;2022-09-06T06:40:56;18.30;83.30
10133;DHT22;5106;50.926;7.080;2022-09-06T06:43:22;18.30;83.20
10133;DHT22;5106;50.926;7.080;2022-09-06T06:45:48;18.40;82.90
10133;DHT22;5106;50.926;7.080;2022-09-06T06:48:14;18.50;82.80
10133;DHT22;5106;50.926;7.080;2022-09-06T06:50:40;18.60;82.70
10133;DHT22;5106;50.926;7.080;2022-09-06T06:53:06;18.70;82.30
10133;DHT22;5106;50.926;7.080;2022-09-06T06:55:31;18.80;81.70
10133;DHT22;5106;50.926;7.080;2022-09-06T06:58:00;18.80;81.30
10133;DHT22;5106;50.926;7.080;2022-09-06T07:00:26;19.00;80.50
10133;DHT22;5106;50.926;7.080;2022-09-06T07:02:52;19.00;80.60
10133;DHT22;5106;50.926;7.080;2022-09-06T07:05:18;19.20;80.20
10133;DHT22;5106;50.926;7.080;2022-09-06T07:07:43;19.30;79.40
10133;DHT22;5106;50.926;7.080;2022-09-06T07:10:09;19.40;79.00
10133;DHT22;5106;50.926;7.080;2022-09-06T07:12:35;19.40;79.30
10133;DHT22;5106;50.926;7.080;2022-09-06T07:15:01;19.50;79.00
10133;DHT22;5106;50.926;7.080;2022-09-06T07:17:27;19.60;78.30
10133;DHT22;5106;50.926;7.080;2022-09-06T07:19:53;19.70;78.60
10133;DHT22;5106;50.926;7.080;2022-09-06T07:22:18;19.90;78.10
10133;DHT22;5106;50.926;7.080;2022-09-06T07:24:44;19.90;77.30
10133;DHT22;5106;50.926;7.080;2022-09-06T07:27:09;20.10;76.40
10133;DHT22;5106;50.926;7.080;2022-09-06T07:29:35;20.20;75.40
10133;DHT22;5106;50.926;7.080;2022-09-06T07:32:01;20.30;75.70
10133;DHT22;5106;50.926;7.080;2022-09-06T07:34:26;20.40;75.60
10133;DHT22;5106;50.926;7.080;2022-09-06T07:36:53;20.60;75.10
10133;DHT22;5106;50.926;7.080;2022-09-06T07:39:19;20.70;74.90
10133;DHT22;5106;50.926;7.080;2022-09-06T07:41:44;20.80;74.60
10133;DHT22;5106;50.926;7.080;2022-09-06T07:44:10;20.90;74.40
10133;DHT22;5106;50.926;7.080;2022-09-06T07:46:35;21.10;74.30
10133;DHT22;5106;50.926;7.080;2022-09-06T07:49:03;21.20;74.50
10133;DHT22;5106;50.926;7.080;2022-09-06T07:51:29;21.30;74.70
10133;DHT22;5106;50.926;7.080;2022-09-06T07:53:55;21.40;72.80
10133;DHT22;5106;50.926;7.080;2022-09-06T07:56:22;21.50;72.70
10133;DHT22;5106;50.926;7.080;2022-09-06T07:58:49;21.70;72.20
10133;DHT22;5106;50.926;7.080;2022-09-06T08:03:42;22.00;70.80
10133;DHT22;5106;50.926;7.080;2022-09-06T08:06:08;22.10;70.40
10133;DHT22;5106;50.926;7.080;2022-09-06T08:08:34;22.30;69.00
10133;DHT22;5106;50.926;7.080;2022-09-06T08:11:00;22.40;69.40
10133;DHT22;5106;50.926;7.080;2022-09-06T08:13:25;22.50;69.80
10133;DHT22;5106;50.926;7.080;2022-09-06T08:16:02;22.60;68.80
10133;DHT22;5106;50.926;7.080;2022-09-06T08:18:27;22.70;68.10
10133;DHT22;5106;50.926;7.080;2022-09-06T08:20:53;22.90;68.00
10133;DHT22;5106;50.926;7.080;2022-09-06T08:23:19;23.00;66.40
10133;DHT22;5106;50.926;7.080;2022-09-06T08:25:57;23.20;67.60
10133;DHT22;5106;50.926;7.080;2022-09-06T08:28:23;23.30;65.60
10133;DHT22;5106;50.926;7.080;2022-09-06T08:30:49;23.50;66.00
10133;DHT22;5106;50.926;7.080;2022-09-06T08:33:14;23.50;65.10
10133;DHT22;5106;50.926;7.080;2022-09-06T08:35:42;23.70;64.50
10133;DHT22;5106;50.926;7.080;2022-09-06T08:38:07;23.80;64.00
10133;DHT22;5106;50.926;7.080;2022-09-06T08:40:33;23.90;63.90
10133;DHT22;5106;50.926;7.080;2022-09-06T08:42:59;24.00;63.90
10133;DHT22;5106;50.926;7.080;2022-09-06T08:45:25;24.10;64.10
10133;DHT22;5106;50.926;7.080;2022-09-06T08:47:51;24.20;63.90
10133;DHT22;5106;50.926;7.080;2022-09-06T08:50:17;24.40;63.50
10133;DHT22;5106;50.926;7.080;2022-09-06T08:53:03;24.50;61.90
10133;DHT22;5106;50.926;7.080;2022-09-06T08:55:51;24.60;62.00
10133;DHT22;5106;50.926;7.080;2022-09-06T09:02:08;24.80;62.30
10133;DHT22;5106;50.926;7.080;2022-09-06T09:04:38;24.90;62.00
10133;DHT22;5106;50.926;7.080;2022-09-06T09:07:26;25.00;61.90
10133;DHT22;5106;50.926;7.080;2022-09-06T09:09:55;25.10;61.50
10133;DHT22;5106;50.926;7.080;2022-09-06T09:12:22;25.30;61.40
10133;DHT22;5106;50.926;7.080;2022-09-06T09:14:54;25.40;61.30
10133;DHT22;5106;50.926;7.080;2022-09-06T09:17:26;25.40;60.60
10133;DHT22;5106;50.926;7.080;2022-09-06T09:19:54;25.50;60.90
10133;DHT22;5106;50.926;7.080;2022-09-06T09:22:20;25.60;60.70
10133;DHT22;5106;50.926;7.080;2022-09-06T09:24:47;25.70;60.10
10133;DHT22;5106;50.926;7.080;2022-09-06T09:27:16;25.80;60.50
10133;DHT22;5106;50.926;7.080;2022-09-06T09:29:55;26.00;60.70
10133;DHT22;5106;50.926;7.080;2022-09-06T09:32:32;26.10;61.20
10133;DHT22;5106;50.926;7.080;2022-09-06T09:35:19;26.20;60.20
10133;DHT22;5106;50.926;7.080;2022-09-06T09:37:45;26.30;60.30
10133;DHT22;5106;50.926;7.080;2022-09-06T09:40:26;26.40;59.80
10133;DHT22;5106;50.926;7.080;2022-09-06T09:42:54;26.60;59.70
10133;DHT22;5106;50.926;7.080;2022-09-06T09:45:28;26.70;58.80
10133;DHT22;5106;50.926;7.080;2022-09-06T09:47:55;26.80;58.60
10133;DHT22;5106;50.926;7.080;2022-09-06T09:50:33;26.80;58.20
10133;DHT22;5106;50.926;7.080;2022-09-06T09:53:11;26.90;58.50
10133;DHT22;5106;50.926;7.080;2022-09-06T09:55:37;27.00;58.10
10133;DHT22;5106;50.926;7.080;2022-09-06T09:58:04;27.10;57.40
10133;DHT22;5106;50.926;7.080;2022-09-06T10:02:58;27.30;56.40
10133;DHT22;5106;50.926;7.080;2022-09-06T10:05:23;27.40;56.10
10133;DHT22;5106;50.926;7.080;2022-09-06T10:07:52;27.50;56.20
10133;DHT22;5106;50.926;7.080;2022-09-06T10:12:47;27.70;55.00
10133;DHT22;5106;50.926;7.080;2022-09-06T10:15:37;27.80;55.00
10133;DHT22;5106;50.926;7.080;2022-09-06T10:18:03;27.90;54.70
10133;DHT22;5106;50.926;7.080;2022-09-06T10:20:52;27.90;54.10
10133;DHT22;5106;50.926;7.080;2022-09-06T10:23:32;27.90;54.70
10133;DHT22;5106;50.926;7.080;2022-09-06T10:28:33;28.00;53.50
10133;DHT22;5106;50.926;7.080;2022-09-06T10:40:08;28.20;52.80
10133;DHT22;5106;50.926;7.080;2022-09-06T10:46:01;28.40;52.20
10133;DHT22;5106;50.926;7.080;2022-09-06T10:51:05;28.60;51.60
10133;DHT22;5106;50.926;7.080;2022-09-06T10:56:05;28.50;50.60
10133;DHT22;5106;50.926;7.080;2022-09-06T10:59:02;28.50;51.10
10133;DHT22;5106;50.926;7.080;2022-09-06T11:01:51;28.60;51.60
10133;DHT22;5106;50.926;7.080;2022-09-06T11:04:33;28.60;50.50
10133;DHT22;5106;50.926;7.080;2022-09-06T11:07:03;28.60;51.00
10133;DHT22;5106;50.926;7.080;2022-09-06T11:09:45;28.60;51.90
10133;DHT22;5106;50.926;7.080;2022-09-06T11:14:55;28.60;50.50
10133;DHT22;5106;50.926;7.080;2022-09-06T11:17:31;28.70;51.50
10133;DHT22;5106;50.926;7.080;2022-09-06T11:20:04;28.70;51.30
10133;DHT22;5106;50.926;7.080;2022-09-06T11:22:46;28.70;50.80
10133;DHT22;5106;50.926;7.080;2022-09-06T11:25:50;28.70;50.20
10133;DHT22;5106;50.926;7.080;2022-09-06T11:28:45;28.70;50.40
10133;DHT22;5106;50.926;7.080;2022-09-06T11:31:23;28.60;51.10
10133;DHT22;5106;50.926;7.080;2022-09-06T11:34:01;28.60;50.50
10133;DHT22;5106;50.926;7.080;2022-09-06T11:37:01;28.70;52.50
10133;DHT22;5106;50.926;7.080;2022-09-06T11:39:24;28.70;50.80
10133;DHT22;5106;50.926;7.080;2022-09-06T11:41:51;28.70;51.20
10133;DHT22;5106;50.926;7.080;2022-09-06T11:47:40;28.80;51.80
10133;DHT22;5106;50.926;7.080;2022-09-06T11:55:41;28.90;51.10
10133;DHT22;5106;50.926;7.080;2022-09-06T11:59:19;28.90;50.70
10133;DHT22;5106;50.926;7.080;2022-09-06T12:08:41;29.10;49.30
10133;DHT22;5106;50.926;7.080;2022-09-06T12:13:59;29.10;50.00
10133;DHT22;5106;50.926;7.080;2022-09-06T12:19:46;29.20;49.90
10133;DHT22;5106;50.926;7.080;2022-09-06T12:29:59;29.20;50.30
10133;DHT22;5106;50.926;7.080;2022-09-06T12:32:41;29.00;50.90
10133;DHT22;5106;50.926;7.080;2022-09-06T12:35:16;29.00;51.10
10133;DHT22;5106;50.926;7.080;2022-09-06T12:40:24;28.90;51.20
10133;DHT22;5106;50.926;7.080;2022-09-06T12:42:51;28.90;51.00
10133;DHT22;5106;50.926;7.080;2022-09-06T12:45:18;29.10;50.40
10133;DHT22;5106;50.926;7.080;2022-09-06T12:47:45;29.40;49.90
10133;DHT22;5106;50.926;7.080;2022-09-06T12:52:49;29.40;50.00
10133;DHT22;5106;50.926;7.080;2022-09-06T12:57:58;29.50;48.80
10133;DHT22;5106;50.926;7.080;2022-09-06T13:00:27;29.50;48.80
10133;DHT22;5106;50.926;7.080;2022-09-06T13:05:44;29.50;49.60
10133;DHT22;5106;50.926;7.080;2022-09-06T13:08:15;29.50;49.50
10133;DHT22;5106;50.926;7.080;2022-09-06T13:10:44;29.70;49.00
10133;DHT22;5106;50.926;7.080;2022-09-06T13:13:21;29.80;47.70
10133;DHT22;5106;50.926;7.080;2022-09-06T13:15:47;29.90;47.10
10133;DHT22;5106;50.926;7.080;2022-09-06T13:18:31;30.10;47.40
10133;DHT22;5106;50.926;7.080;2022-09-06T13:21:05;30.20;47.40
10133;DHT22;5106;50.926;7.080;2022-09-06T13:23:48;30.40;47.40
10133;DHT22;5106;50.926;7.080;2022-09-06T13:26:39;30.40;46.50
10133;DHT22;5106;50.926;7.080;2022-09-06T13:29:29;30.30;45.90
10133;DHT22;5106;50.926;7.080;2022-09-06T13:31:57;30.20;47.10
10133;DHT22;5106;50.926;7.080;2022-09-06T13:34:28;30.10;47.00
10133;DHT22;5106;50.926;7.080;2022-09-06T13:37:00;30.10;48.30
10133;DHT22;5106;50.926;7.080;2022-09-06T13:39:32;30.20;46.20
10133;DHT22;5106;50.926;7.080;2022-09-06T13:44:32;30.20;46.70
10133;DHT22;5106;50.926;7.080;2022-09-06T13:46:58;30.30;47.20
10133;DHT22;5106;50.926;7.080;2022-09-06T13:49:24;30.40;46.10
10133;DHT22;5106;50.926;7.080;2022-09-06T13:51:52;30.50;45.40
10133;DHT22;5106;50.926;7.080;2022-09-06T13:54:18;30.40;45.70
10133;DHT22;5106;50.926;7.080;2022-09-06T13:56:44;30.40;46.20
10133;DHT22;5106;50.926;7.080;2022-09-06T13:59:10;30.40;46.80
10133;DHT22;5106;50.926;7.080;2022-09-06T14:01:41;30.50;45.30
10133;DHT22;5106;50.926;7.080;2022-09-06T14:04:10;30.70;44.20
10133;DHT22;5106;50.926;7.080;2022-09-06T14:06:36;30.80;45.00
10133;DHT22;5106;50.926;7.080;2022-09-06T14:09:02;30.90;43.40
10133;DHT22;5106;50.926;7.080;2022-09-06T14:11:28;31.00;42.80
10133;DHT22;5106;50.926;7.080;2022-09-06T14:13:54;31.00;43.50
10133;DHT22;5106;50.926;7.080;2022-09-06T14:16:20;31.00;44.20
10133;DHT22;5106;50.926;7.080;2022-09-06T14:18:45;31.10;45.00
10133;DHT22;5106;50.926;7.080;2022-09-06T14:21:11;31.10;43.70
10133;DHT22;5106;50.926;7.080;2022-09-06T14:23:37;31.10;42.80
10133;DHT22;5106;50.926;7.080;2022-09-06T14:26:03;31.00;43.30
10133;DHT22;5106;50.926;7.080;2022-09-06T14:28:33;31.00;43.20
10133;DHT22;5106;50.926;7.080;2022-09-06T14:31:12;31.00;43.30
10133;DHT22;5106;50.926;7.080;2022-09-06T14:33:38;31.00;40.60
10133;DHT22;5106;50.926;7.080;2022-09-06T14:36:08;31.10;40.80
10133;DHT22;5106;50.926;7.080;2022-09-06T14:38:36;31.10;40.20
10133;DHT22;5106;50.926;7.080;2022-09-06T14:41:03;31.10;38.50
10133;DHT22;5106;50.926;7.080;2022-09-06T14:43:29;31.20;38.40
10133;DHT22;5106;50.926;7.080;2022-09-06T14:48:30;31.30;38.50
10133;DHT22;5106;50.926;7.080;2022-09-06T14:50:56;31.30;38.30
10133;DHT22;5106;50.926;7.080;2022-09-06T14:53:22;31.30;38.60
10133;DHT22;5106;50.926;7.080;2022-09-06T14:55:48;31.30;38.50
10133;DHT22;5106;50.926;7.080;2022-09-06T14:58:13;31.30;38.90
10133;DHT22;5106;50.926;7.080;2022-09-06T15:00:40;31.40;40.00
10133;DHT22;5106;50.926;7.080;2022-09-06T15:03:06;31.50;39.40
10133;DHT22;5106;50.926;7.080;2022-09-06T15:05:31;31.50;39.50
10133;DHT22;5106;50.926;7.080;2022-09-06T15:07:57;31.50;39.40
10133;DHT22;5106;50.926;7.080;2022-09-06T15:10:23;31.60;38.20
10133;DHT22;5106;50.926;7.080;2022-09-06T15:12:50;31.70;37.90
10133;DHT22;5106;50.926;7.080;2022-09-06T15:15:16;31.70;38.00
10133;DHT22;5106;50.926;7.080;2022-09-06T15:17:41;31.80;37.90
10133;DHT22;5106;50.926;7.080;2022-09-06T15:20:07;31.90;37.90
10133;DHT22;5106;50.926;7.080;2022-09-06T15:22:33;32.10;38.90
10133;DHT22;5106;50.926;7.080;2022-09-06T15:24:59;32.30;38.00
10133;DHT22;5106;50.926;7.080;2022-09-06T15:27:25;32.40;38.20
10133;DHT22;5106;50.926;7.080;2022-09-06T15:29:50;32.50;39.70
10133;DHT22;5106;50.926;7.080;2022-09-06T15:32:16;32.40;37.40
10133;DHT22;5106;50.926;7.080;2022-09-06T15:34:42;32.40;37.30
10133;DHT22;5106;50.926;7.080;2022-09-06T15:37:07;32.30;38.20
10133;DHT22;5106;50.926;7.080;2022-09-06T15:39:33;32.20;37.50
10133;DHT22;5106;50.926;7.080;2022-09-06T15:41:59;32.20;37.50
10133;DHT22;5106;50.926;7.080;2022-09-06T15:44:24;32.10;38.10
10133;DHT22;5106;50.926;7.080;2022-09-06T15:46:55;32.00;38.80
10133;DHT22;5106;50.926;7.080;2022-09-06T15:49:26;31.90;39.30
10133;DHT22;5106;50.926;7.080;2022-09-06T15:51:52;31.80;39.50
10133;DHT22;5106;50.926;7.080;2022-09-06T15:54:18;31.60;39.40
10133;DHT22;5106;50.926;7.080;2022-09-06T15:57:04;31.60;39.30
10133;DHT22;5106;50.926;7.080;2022-09-06T15:59:30;31.60;39.20
10133;DHT22;5106;50.926;7.080;2022-09-06T16:01:56;31.60;39.30
10133;DHT22;5106;50.926;7.080;2022-09-06T16:04:21;31.90;38.70
10133;DHT22;5106;50.926;7.080;2022-09-06T16:06:48;32.20;38.10
10133;DHT22;5106;50.926;7.080;2022-09-06T16:09:14;32.60;38.60
10133;DHT22;5106;50.926;7.080;2022-09-06T16:11:41;33.00;38.60
10133;DHT22;5106;50.926;7.080;2022-09-06T16:14:10;33.30;38.60
10133;DHT22;5106;50.926;7.080;2022-09-06T16:16:36;33.60;38.30
10133;DHT22;5106;50.926;7.080;2022-09-06T16:19:02;33.80;37.70
10133;DHT22;5106;50.926;7.080;2022-09-06T16:21:31;33.90;37.50
10133;DHT22;5106;50.926;7.080;2022-09-06T16:24:00;33.90;37.90
10133;DHT22;5106;50.926;7.080;2022-09-06T16:26:28;33.80;37.60
10133;DHT22;5106;50.926;7.080;2022-09-06T16:28:57;33.90;37.70
10133;DHT22;5106;50.926;7.080;2022-09-06T16:31:23;34.10;37.30
10133;DHT22;5106;50.926;7.080;2022-09-06T16:33:49;34.20;37.20
10133;DHT22;5106;50.926;7.080;2022-09-06T16:36:15;34.10;37.50
10133;DHT22;5106;50.926;7.080;2022-09-06T16:38:41;33.80;37.90
10133;DHT22;5106;50.926;7.080;2022-09-06T16:43:57;33.10;38.50
10133;DHT22;5106;50.926;7.080;2022-09-06T16:46:24;32.80;39.10
10133;DHT22;5106;50.926;7.080;2022-09-06T16:48:58;32.60;39.00
10133;DHT22;5106;50.926;7.080;2022-09-06T16:51:26;32.60;40.60
10133;DHT22;5106;50.926;7.080;2022-09-06T16:53:53;32.60;40.10
10133;DHT22;5106;50.926;7.080;2022-09-06T16:56:21;32.40;40.10
10133;DHT22;5106;50.926;7.080;2022-09-06T16:58:55;32.00;40.80
10133;DHT22;5106;50.926;7.080;2022-09-06T17:01:22;31.60;41.60
10133;DHT22;5106;50.926;7.080;2022-09-06T17:03:49;31.20;42.00
10133;DHT22;5106;50.926;7.080;2022-09-06T17:06:15;30.80;43.50
10133;DHT22;5106;50.926;7.080;2022-09-06T17:08:41;30.40;44.50
10133;DHT22;5106;50.926;7.080;2022-09-06T17:11:10;30.10;44.20
10133;DHT22;5106;50.926;7.080;2022-09-06T17:13:36;29.80;45.10
10133;DHT22;5106;50.926;7.080;2022-09-06T17:16:02;29.60;45.50
10133;DHT22;5106;50.926;7.080;2022-09-06T17:18:47;29.30;46.60
10133;DHT22;5106;50.926;7.080;2022-09-06T17:21:12;29.10;46.80
10133;DHT22;5106;50.926;7.080;2022-09-06T17:23:38;28.90;46.10
10133;DHT22;5106;50.926;7.080;2022-09-06T17:26:05;28.70;47.10
10133;DHT22;5106;50.926;7.080;2022-09-06T17:28:35;28.60;47.50
10133;DHT22;5106;50.926;7.080;2022-09-06T17:31:03;28.40;47.40
10133;DHT22;5106;50.926;7.080;2022-09-06T17:33:29;28.30;47.70
10133;DHT22;5106;50.926;7.080;2022-09-06T17:36:07;28.20;48.80
10133;DHT22;5106;50.926;7.080;2022-09-06T17:38:34;28.00;48.80
10133;DHT22;5106;50.926;7.080;2022-09-06T17:41:00;27.90;50.00
10133;DHT22;5106;50.926;7.080;2022-09-06T17:43:26;27.80;50.70
10133;DHT22;5106;50.926;7.080;2022-09-06T17:45:52;27.70;50.80